Time;durP1;ratioP1;P1;durP2;ratioP2;P2;SDS_P1;SDS_P2;PMS_P1;PMS_P2;Temp;Humidity;BMP_temperature;BMP_pressure;BME280_temperature;BME280_humidity;BME280_pressure;Samples;Min_cycle;Max_cycle;Signal;HPM_P1;HPM_P2
2021/07/07 00:00:38;;;;;;;;;;;;;;;20.81;85.13;99340.03;5034848;28;1894;-61
2021/07/07 00:03:04;;;;;;;;;;;;;;;20.85;84.67;99343.41;5034540;28;959;-60
2021/07/07 00:05:39;;;;;;;;;;;;;;;20.82;84.91;99352.78;5034686;28;838;-61
2021/07/07 00:08:06;;;;;;;;;;;;;;;20.74;85.63;99348.81;5034228;28;858;-61
2021/07/07 00:10:34;;;;;;;;;;;;;;;20.72;85.46;99348.56;5034166;28;826;-60
2021/07/07 00:13:02;;;;;;;;;;;;;;;20.71;85.80;99352.59;5034329;28;1034;-60
2021/07/07 00:15:33;;;;;;;;;;;;;;;20.72;85.70;99354.94;5049209;28;1452;-60
2021/07/07 00:18:02;;;;;;;;;;;;;;;20.63;86.13;99362.66;5034090;28;842;-61
2021/07/07 00:20:36;;;;;;;;;;;;;;;20.53;86.43;99359.16;5033886;28;1910;-59
2021/07/07 00:23:03;;;;;;;;;;;;;;;20.52;86.52;99366.78;5034192;28;909;-61
2021/07/07 00:25:30;;;;;;;;;;;;;;;20.51;86.75;99359.63;5033908;28;894;-61
2021/07/07 00:27:57;;;;;;;;;;;;;;;20.50;86.72;99374.13;5049366;28;1666;-61
2021/07/07 00:30:24;;;;;;;;;;;;;;;20.48;86.46;99379.44;5033943;28;858;-59
2021/07/07 00:32:50;;;;;;;;;;;;;;;20.59;86.21;99376.91;5049216;28;1245;-60
2021/07/07 00:35:17;;;;;;;;;;;;;;;20.66;85.83;99378.56;5049105;28;2314;-60
2021/07/07 00:37:43;;;;;;;;;;;;;;;20.70;85.56;99388.34;5033895;28;874;-59
2021/07/07 00:40:09;;;;;;;;;;;;;;;20.68;85.74;99385.25;5033772;28;1878;-60
2021/07/07 00:42:36;;;;;;;;;;;;;;;20.58;85.78;99392.94;5033513;28;851;-60
2021/07/07 00:45:02;;;;;;;;;;;;;;;20.53;86.15;99387.22;5033517;28;803;-61
2021/07/07 00:47:28;;;;;;;;;;;;;;;20.44;86.24;99382.47;5033481;28;818;-61
2021/07/07 00:49:55;;;;;;;;;;;;;;;20.39;86.46;99385.94;5033424;28;854;-61
2021/07/07 00:52:21;;;;;;;;;;;;;;;20.28;86.68;99394.91;5033349;28;811;-61
2021/07/07 00:54:48;;;;;;;;;;;;;;;20.24;87.17;99387.91;5033300;28;850;-61
2021/07/07 00:57:16;;;;;;;;;;;;;;;20.24;86.91;99390.72;5033200;28;831;-60
2021/07/07 00:59:45;;;;;;;;;;;;;;;20.31;86.27;99390.34;5033232;28;1886;-60
2021/07/07 01:02:16;;;;;;;;;;;;;;;20.37;85.96;99397.63;5033167;28;819;-61
2021/07/07 01:04:43;;;;;;;;;;;;;;;20.45;85.15;99397.28;5033334;28;767;-60
2021/07/07 01:07:09;;;;;;;;;;;;;;;20.52;84.33;99392.03;5033417;28;799;-60
2021/07/07 01:09:36;;;;;;;;;;;;;;;20.60;83.91;99398.09;5033238;28;842;-60
2021/07/07 01:12:03;;;;;;;;;;;;;;;20.58;83.49;99392.19;5033208;28;931;-59
2021/07/07 01:14:29;;;;;;;;;;;;;;;20.58;84.06;99400.59;5032437;28;1372;-62
2021/07/07 01:16:56;;;;;;;;;;;;;;;20.48;84.15;99393.50;5033468;28;787;-61
2021/07/07 01:19:23;;;;;;;;;;;;;;;20.42;84.58;99396.19;5032921;28;1973;-61
2021/07/07 01:21:50;;;;;;;;;;;;;;;20.35;84.86;99394.53;5048925;28;868;-61
2021/07/07 01:24:17;;;;;;;;;;;;;;;20.39;84.25;99395.13;5032836;28;796;-59
2021/07/07 01:26:43;;;;;;;;;;;;;;;20.51;84.43;99389.75;5033503;28;822;-62
2021/07/07 01:29:10;;;;;;;;;;;;;;;20.37;84.97;99396.84;5048417;28;624;-62
2021/07/07 01:31:38;;;;;;;;;;;;;;;20.20;85.57;99390.91;5033579;28;763;-62
2021/07/07 01:34:05;;;;;;;;;;;;;;;20.02;86.17;99393.84;5048071;28;1513;-62
2021/07/07 01:36:32;;;;;;;;;;;;;;;19.90;86.80;99384.41;5032899;28;850;-62
2021/07/07 01:38:59;;;;;;;;;;;;;;;19.79;86.70;99391.31;5032634;28;1955;-62
2021/07/07 01:41:26;;;;;;;;;;;;;;;19.60;87.02;99384.22;5032660;28;835;-62
2021/07/07 01:43:53;;;;;;;;;;;;;;;19.42;87.69;99389.94;5032745;28;882;-62
2021/07/07 01:46:20;;;;;;;;;;;;;;;19.36;87.89;99390.56;5032632;28;791;-62
2021/07/07 01:48:46;;;;;;;;;;;;;;;19.24;88.04;99383.13;5033122;28;755;-62
2021/07/07 01:51:13;;;;;;;;;;;;;;;19.18;88.34;99379.41;5032366;28;838;-62
2021/07/07 01:53:39;;;;;;;;;;;;;;;19.12;88.38;99376.50;5032760;28;803;-62
2021/07/07 01:56:05;;;;;;;;;;;;;;;19.14;88.97;99376.03;5032127;28;806;-62
2021/07/07 01:58:32;;;;;;;;;;;;;;;19.21;88.97;99374.91;5032192;28;830;-62
2021/07/07 02:00:57;;;;;;;;;;;;;;;19.38;88.94;99379.66;5031983;28;1906;-62
2021/07/07 02:03:24;;;;;;;;;;;;;;;19.58;88.58;99381.13;5032121;28;909;-62
2021/07/07 02:05:50;;;;;;;;;;;;;;;19.68;88.32;99391.03;5031984;28;806;-63
2021/07/07 02:08:17;;;;;;;;;;;;;;;19.70;88.19;99382.97;5031940;28;787;-63
2021/07/07 02:10:44;;;;;;;;;;;;;;;19.78;88.07;99386.97;5032183;28;870;-62
2021/07/07 02:13:11;;;;;;;;;;;;;;;19.82;87.80;99395.19;5032064;28;919;-63
2021/07/07 02:15:38;;;;;;;;;;;;;;;19.74;87.71;99397.59;5031748;28;1197;-63
2021/07/07 02:18:06;;;;;;;;;;;;;;;19.61;87.70;99388.59;5047119;28;1413;-63
2021/07/07 02:20:34;;;;;;;;;;;;;;;19.46;87.84;99382.91;5031772;28;1917;-63
2021/07/07 02:23:00;;;;;;;;;;;;;;;19.45;88.44;99386.94;5031634;28;874;-63
2021/07/07 02:28:03;;;;;;;;;;;;;;;19.77;87.87;99387.44;5189608;22;1796;-63
2021/07/07 02:30:31;;;;;;;;;;;;;;;19.88;87.43;99386.91;5033757;28;1293;-64
2021/07/07 02:32:59;;;;;;;;;;;;;;;19.97;87.25;99393.25;5051538;28;794;-64
2021/07/07 02:35:28;;;;;;;;;;;;;;;19.94;87.01;99390.63;5051548;28;861;-61
2021/07/07 02:37:55;;;;;;;;;;;;;;;20.06;86.90;99398.03;5051865;28;861;-63
2021/07/07 02:40:25;;;;;;;;;;;;;;;20.14;86.39;99393.59;5051483;28;1946;-63
2021/07/07 02:42:53;;;;;;;;;;;;;;;20.24;85.70;99390.72;5287357;22;2018;-62
2021/07/07 02:45:20;;;;;;;;;;;;;;;20.23;85.90;99389.16;5051536;28;876;-65
2021/07/07 02:47:47;;;;;;;;;;;;;;;20.07;86.14;99396.00;5051494;28;880;-64
2021/07/07 02:50:15;;;;;;;;;;;;;;;19.99;86.71;99389.94;5051414;28;809;-64
2021/07/07 02:52:42;;;;;;;;;;;;;;;19.90;86.83;99395.63;5051445;28;870;-64
2021/07/07 02:55:09;;;;;;;;;;;;;;;19.84;87.02;99398.28;5051419;28;805;-65
2021/07/07 03:00:20;;;;;;;;;;;;;;;19.77;87.25;99399.44;5051237;28;1973;-64
2021/07/07 03:02:47;;;;;;;;;;;;;;;19.76;87.25;99392.28;5051302;28;805;-63
2021/07/07 03:05:13;;;;;;;;;;;;;;;19.88;87.16;99396.09;5051570;28;873;-63
2021/07/07 03:07:39;;;;;;;;;;;;;;;20.02;86.97;99391.81;5051463;28;900;-64
2021/07/07 03:10:06;;;;;;;;;;;;;;;20.05;86.73;99399.25;5051528;28;830;-64
2021/07/07 03:12:33;;;;;;;;;;;;;;;20.10;86.44;99409.03;5051376;28;865;-64
2021/07/07 03:15:00;;;;;;;;;;;;;;;20.10;86.37;99400.63;5051716;28;822;-64
2021/07/07 03:17:26;;;;;;;;;;;;;;;20.08;86.62;99411.56;5051412;28;1228;-65
2021/07/07 03:19:53;;;;;;;;;;;;;;;20.06;86.72;99400.06;5051255;28;1890;-65
2021/07/07 03:22:20;;;;;;;;;;;;;;;20.05;86.68;99413.28;5051166;28;1212;-64
2021/07/07 03:24:46;;;;;;;;;;;;;;;20.13;86.80;99414.47;5051156;28;962;-64
2021/07/07 03:27:13;;;;;;;;;;;;;;;20.18;86.50;99416.66;5050994;28;870;-63
2021/07/07 03:29:39;;;;;;;;;;;;;;;20.26;86.16;99422.66;5051344;28;873;-63
2021/07/07 03:32:06;;;;;;;;;;;;;;;20.34;86.34;99423.09;5049691;28;1171;-63
2021/07/07 03:34:33;;;;;;;;;;;;;;;20.40;86.29;99423.97;5051015;28;932;-65
2021/07/07 03:37:00;;;;;;;;;;;;;;;20.49;86.34;99423.91;5051207;28;861;-64
2021/07/07 03:39:26;;;;;;;;;;;;;;;20.75;85.39;99429.00;5054674;28;1894;-64
2021/07/07 03:41:52;;;;;;;;;;;;;;;21.04;84.20;99427.47;5054664;28;914;-64
2021/07/07 03:44:19;;;;;;;;;;;;;;;21.13;84.54;99425.34;5036053;28;1206;-65
2021/07/07 03:46:45;;;;;;;;;;;;;;;21.27;83.72;99429.41;5034611;28;838;-64
2021/07/07 03:49:12;;;;;;;;;;;;;;;21.34;83.74;99428.25;5034618;28;853;-64
2021/07/07 03:51:38;;;;;;;;;;;;;;;21.29;83.59;99426.88;5034516;28;819;-65
2021/07/07 03:54:05;;;;;;;;;;;;;;;21.23;83.54;99431.66;5034489;28;823;-64
2021/07/07 03:56:31;;;;;;;;;;;;;;;21.26;83.64;99433.50;5034406;28;854;-65
2021/07/07 03:58:58;;;;;;;;;;;;;;;21.31;83.49;99435.59;5034399;28;1910;-65
2021/07/07 04:01:25;;;;;;;;;;;;;;;21.37;83.94;99446.97;5034421;28;834;-64
2021/07/07 04:03:51;;;;;;;;;;;;;;;21.47;83.90;99445.63;5034276;28;810;-65
2021/07/07 04:06:18;;;;;;;;;;;;;;;21.63;83.74;99443.56;5034213;28;842;-65
2021/07/07 04:08:44;;;;;;;;;;;;;;;21.89;83.93;99447.28;5034528;28;819;-65
2021/07/07 04:11:09;;;;;;;;;;;;;;;22.35;83.09;99455.09;5034004;28;881;-65
2021/07/07 04:13:36;;;;;;;;;;;;;;;22.83;81.52;99451.81;5034112;28;874;-65
2021/07/07 04:16:02;;;;;;;;;;;;;;;22.96;79.86;99457.09;5016316;28;1257;-65
2021/07/07 04:18:29;;;;;;;;;;;;;;;22.96;79.93;99459.13;5033945;28;897;-66
2021/07/07 04:20:56;;;;;;;;;;;;;;;23.00;79.87;99463.31;5033983;28;1949;-66
2021/07/07 04:23:22;;;;;;;;;;;;;;;23.23;79.82;99464.28;5034012;28;882;-65
2021/07/07 04:25:49;;;;;;;;;;;;;;;23.44;77.83;99470.63;5033881;28;894;-64
2021/07/07 04:28:16;;;;;;;;;;;;;;;23.56;73.65;99471.50;5033881;28;823;-63
2021/07/07 04:30:42;;;;;;;;;;;;;;;23.71;74.87;99465.72;5033773;28;863;-64
2021/07/07 04:33:09;;;;;;;;;;;;;;;23.97;73.11;99467.72;5033784;28;941;-63
2021/07/07 04:35:36;;;;;;;;;;;;;;;24.14;73.16;99473.44;5034016;28;917;-63
2021/07/07 04:38:03;;;;;;;;;;;;;;;24.19;71.93;99469.88;5033747;28;950;-64
2021/07/07 04:40:31;;;;;;;;;;;;;;;24.41;73.26;99469.22;5033473;28;1886;-64
2021/07/07 04:42:57;;;;;;;;;;;;;;;24.81;72.22;99468.09;5033679;28;1272;-65
2021/07/07 04:45:23;;;;;;;;;;;;;;;25.11;70.52;99478.97;5033594;28;892;-63
2021/07/07 04:47:50;;;;;;;;;;;;;;;25.03;73.12;99469.47;5033574;28;892;-66
2021/07/07 04:50:18;;;;;;;;;;;;;;;24.79;74.16;99469.91;5032527;28;791;-64
2021/07/07 04:52:44;;;;;;;;;;;;;;;24.49;71.83;99467.47;5015694;28;1545;-63
2021/07/07 04:55:11;;;;;;;;;;;;;;;24.28;72.45;99475.31;5033331;28;849;-63
2021/07/07 04:57:41;;;;;;;;;;;;;;;24.13;72.44;99478.34;5033561;28;858;-65
2021/07/07 05:00:16;;;;;;;;;;;;;;;23.94;72.25;99477.16;5033166;28;1910;-64
2021/07/07 05:02:43;;;;;;;;;;;;;;;23.98;74.52;99486.16;5033227;28;939;-64
2021/07/07 05:05:13;;;;;;;;;;;;;;;24.13;74.41;99483.97;5033216;28;803;-64
2021/07/07 05:12:59;;;;;;;;;;;;;;;25.19;68.92;99494.16;5949540;22;1660;-65
2021/07/07 05:15:25;;;;;;;;;;;;;;;25.82;67.96;99486.50;5013811;28;822;-63
2021/07/07 05:17:50;;;;;;;;;;;;;;;26.51;66.50;99491.50;5013293;28;810;-63
2021/07/07 05:20:17;;;;;;;;;;;;;;;26.85;65.76;99491.38;5013151;28;1915;-63
2021/07/07 05:22:44;;;;;;;;;;;;;;;26.95;62.93;99480.47;5013178;28;850;-64
2021/07/07 05:25:11;;;;;;;;;;;;;;;27.04;67.65;99491.53;5013089;28;849;-64
2021/07/07 05:27:37;;;;;;;;;;;;;;;27.74;64.11;99496.97;5012924;28;862;-63
2021/07/07 05:30:07;;;;;;;;;;;;;;;28.06;62.88;99512.19;5013213;28;904;-63
2021/07/07 05:32:34;;;;;;;;;;;;;;;28.14;63.31;99506.66;5013541;28;771;-64
2021/07/07 05:35:01;;;;;;;;;;;;;;;28.62;60.78;99510.81;5013263;28;767;-63
2021/07/07 05:37:27;;;;;;;;;;;;;;;28.60;60.09;99507.75;5013137;28;850;-63
2021/07/07 05:39:54;;;;;;;;;;;;;;;28.58;62.12;99512.44;5012932;28;1953;-64
2021/07/07 05:42:21;;;;;;;;;;;;;;;28.72;61.36;99514.06;5012675;28;891;-63
2021/07/07 05:44:49;;;;;;;;;;;;;;;29.11;59.71;99513.56;5012581;28;835;-63
2021/07/07 05:47:16;;;;;;;;;;;;;;;29.19;60.23;99516.56;5013367;28;795;-62
2021/07/07 05:49:43;;;;;;;;;;;;;;;29.42;60.10;99528.34;5012936;28;842;-63
2021/07/07 05:52:10;;;;;;;;;;;;;;;29.66;60.21;99516.09;5012830;28;1004;-62
2021/07/07 05:54:37;;;;;;;;;;;;;;;29.66;57.72;99533.16;5012617;28;850;-63
2021/07/07 05:57:06;;;;;;;;;;;;;;;29.76;59.45;99525.00;5013127;28;779;-63
2021/07/07 05:59:32;;;;;;;;;;;;;;;29.81;58.36;99532.69;5012620;28;1981;-63
2021/07/07 06:01:58;;;;;;;;;;;;;;;30.07;57.09;99537.69;5011238;28;1156;-61
2021/07/07 06:04:25;;;;;;;;;;;;;;;29.80;57.33;99536.84;5013100;28;819;-63
2021/07/07 06:06:51;;;;;;;;;;;;;;;29.85;59.14;99541.69;5012568;28;898;-63
2021/07/07 06:09:18;;;;;;;;;;;;;;;30.19;58.25;99532.53;5012509;28;842;-62
2021/07/07 06:11:44;;;;;;;;;;;;;;;30.44;60.21;99535.97;5012041;28;931;-63
2021/07/07 06:14:11;;;;;;;;;;;;;;;30.77;58.37;99541.53;5012241;28;1201;-62
2021/07/07 06:16:37;;;;;;;;;;;;;;;30.90;56.06;99542.34;5012227;28;846;-62
2021/07/07 06:19:03;;;;;;;;;;;;;;;30.74;53.40;99546.28;5012043;28;1914;-62
2021/07/07 06:21:31;;;;;;;;;;;;;;;30.46;54.91;99546.84;5012097;28;1073;-62
2021/07/07 06:23:58;;;;;;;;;;;;;;;30.23;55.25;99544.38;5012051;28;881;-63
2021/07/07 06:26:28;;;;;;;;;;;;;;;30.29;56.49;99555.72;5012053;28;881;-62
2021/07/07 06:28:55;;;;;;;;;;;;;;;30.52;56.24;99550.34;5012473;28;815;-62
2021/07/07 06:31:22;;;;;;;;;;;;;;;30.61;56.78;99558.44;5012867;28;794;-62
2021/07/07 06:33:48;;;;;;;;;;;;;;;30.76;55.35;99560.75;5012046;28;878;-62
2021/07/07 06:36:15;;;;;;;;;;;;;;;30.84;54.16;99561.63;5011933;28;834;-62
2021/07/07 06:38:41;;;;;;;;;;;;;;;30.81;55.85;99567.66;5011969;28;874;-63
2021/07/07 06:41:08;;;;;;;;;;;;;;;31.03;56.80;99561.50;5011686;28;1882;-63
2021/07/07 06:43:35;;;;;;;;;;;;;;;30.74;57.04;99561.28;5011816;28;979;-63
2021/07/07 06:46:02;;;;;;;;;;;;;;;31.00;57.95;99561.84;5011788;28;881;-64
2021/07/07 06:48:28;;;;;;;;;;;;;;;30.40;58.72;99557.56;5011849;28;814;-64
2021/07/07 06:50:55;;;;;;;;;;;;;;;30.42;60.70;99564.25;5011688;28;878;-63
2021/07/07 06:53:25;;;;;;;;;;;;;;;30.46;61.17;99561.84;5011741;28;811;-63
2021/07/07 06:55:52;;;;;;;;;;;;;;;29.79;63.17;99560.19;5011610;28;850;-63
2021/07/07 06:58:19;;;;;;;;;;;;;;;29.59;62.51;99567.94;5012511;28;799;-63
2021/07/07 07:00:46;;;;;;;;;;;;;;;29.54;61.24;99553.81;5011877;28;1886;-63
2021/07/07 07:03:13;;;;;;;;;;;;;;;29.79;62.59;99552.41;4994423;28;1259;-62
2021/07/07 07:05:39;;;;;;;;;;;;;;;31.56;62.18;99556.97;5011897;28;834;-63
2021/07/07 07:08:06;;;;;;;;;;;;;;;32.96;58.41;99558.22;5011645;28;889;-64
2021/07/07 07:10:32;;;;;;;;;;;;;;;33.44;57.86;99560.72;5011544;28;846;-63
2021/07/07 07:12:59;;;;;;;;;;;;;;;33.96;56.51;99544.19;5013499;28;871;-63
2021/07/07 07:15:25;;;;;;;;;;;;;;;34.32;50.39;99552.59;5035542;28;814;-61
2021/07/07 07:17:52;;;;;;;;;;;;;;;34.49;51.73;99551.22;5035208;28;818;-62
2021/07/07 07:20:18;;;;;;;;;;;;;;;34.65;50.61;99561.31;5034932;28;1913;-61
2021/07/07 07:22:45;;;;;;;;;;;;;;;34.32;48.65;99560.44;5035305;28;854;-62
2021/07/07 07:25:12;;;;;;;;;;;;;;;33.38;50.94;99565.84;5050317;28;1312;-63
2021/07/07 07:27:39;;;;;;;;;;;;;;;33.42;52.12;99558.41;5035039;28;833;-64
2021/07/07 07:30:06;;;;;;;;;;;;;;;33.59;51.24;99569.34;5034939;28;877;-62
2021/07/07 07:32:33;;;;;;;;;;;;;;;32.57;53.69;99571.59;5034942;28;819;-63
2021/07/07 07:35:00;;;;;;;;;;;;;;;33.13;55.03;99578.56;5034969;28;850;-63
2021/07/07 07:37:37;;;;;;;;;;;;;;;33.64;51.03;99587.72;5034915;28;818;-61
2021/07/07 07:40:10;;;;;;;;;;;;;;;33.87;52.88;99579.16;5034540;28;1973;-62
2021/07/07 07:42:41;;;;;;;;;;;;;;;33.96;48.64;99582.19;5034618;28;835;-61
2021/07/07 07:45:11;;;;;;;;;;;;;;;34.02;47.71;99575.53;5034647;28;908;-63
2021/07/07 07:47:39;;;;;;;;;;;;;;;33.45;48.05;99585.91;5034713;28;885;-63
2021/07/07 07:50:06;;;;;;;;;;;;;;;33.23;49.03;99580.91;5034579;28;850;-61
2021/07/07 07:52:32;;;;;;;;;;;;;;;33.36;51.62;99581.50;5034531;28;846;-64
2021/07/07 07:54:58;;;;;;;;;;;;;;;33.97;51.69;99583.75;5034698;28;819;-63
2021/07/07 07:57:24;;;;;;;;;;;;;;;34.41;48.45;99579.16;5034474;28;838;-62
2021/07/07 07:59:51;;;;;;;;;;;;;;;34.04;50.36;99587.94;5034376;28;1886;-63
2021/07/07 08:02:19;;;;;;;;;;;;;;;34.07;50.09;99580.28;5034482;28;862;-64
2021/07/07 08:04:47;;;;;;;;;;;;;;;34.33;50.23;99579.94;5034416;28;922;-64
2021/07/07 08:07:13;;;;;;;;;;;;;;;34.91;45.79;99590.91;5034119;28;870;-63
2021/07/07 08:09:40;;;;;;;;;;;;;;;34.70;47.43;99594.06;5034184;28;869;-63
2021/07/07 08:12:06;;;;;;;;;;;;;;;34.52;43.70;99590.97;5034174;28;936;-63
2021/07/07 08:14:33;;;;;;;;;;;;;;;34.31;47.37;99601.91;5033956;28;1397;-63
2021/07/07 08:17:00;;;;;;;;;;;;;;;34.70;47.28;99605.53;5034116;28;814;-64
2021/07/07 08:19:26;;;;;;;;;;;;;;;34.91;47.92;99599.53;5034234;28;1910;-64
2021/07/07 08:21:53;;;;;;;;;;;;;;;35.20;48.08;99596.38;5033990;28;811;-64
2021/07/07 08:24:19;;;;;;;;;;;;;;;35.53;44.48;99602.94;5032631;28;1040;-62
2021/07/07 08:26:45;;;;;;;;;;;;;;;35.57;46.20;99597.53;5033941;28;842;-62
2021/07/07 08:29:11;;;;;;;;;;;;;;;33.95;48.42;99603.63;5033900;28;865;-62
2021/07/07 08:31:38;;;;;;;;;;;;;;;33.71;46.87;99607.00;5034006;28;859;-62
2021/07/07 08:34:05;;;;;;;;;;;;;;;34.12;49.00;99608.06;5033692;28;932;-62
2021/07/07 08:36:32;;;;;;;;;;;;;;;34.01;45.68;99602.66;5033704;28;823;-61
2021/07/07 08:38:59;;;;;;;;;;;;;;;33.85;45.82;99596.91;5033727;28;834;-62
2021/07/07 08:41:26;;;;;;;;;;;;;;;33.75;45.31;99610.25;5033526;28;1949;-62
2021/07/07 08:43:52;;;;;;;;;;;;;;;33.83;49.08;99610.28;5033525;28;831;-62
2021/07/07 08:49:21;;;;;;;;;;;;;;;33.25;47.91;99609.72;5033618;28;605;-62
2021/07/07 08:51:47;;;;;;;;;;;;;;;33.21;48.44;99612.19;5033800;28;901;-62
2021/07/07 08:54:19;;;;;;;;;;;;;;;33.31;46.43;99613.94;5015544;28;1174;-62
2021/07/07 08:56:46;;;;;;;;;;;;;;;33.45;50.15;99610.94;5033323;28;829;-62
2021/07/07 08:59:14;;;;;;;;;;;;;;;33.68;45.49;99606.06;5033412;28;1976;-62
2021/07/07 09:02:01;;;;;;;;;;;;;;;33.32;45.53;99606.88;5033298;28;897;-62
2021/07/07 09:04:35;;;;;;;;;;;;;;;32.58;47.59;99615.25;5033231;28;862;-61
2021/07/07 09:07:03;;;;;;;;;;;;;;;32.56;47.54;99610.06;5015517;28;901;-62
2021/07/07 09:09:42;;;;;;;;;;;;;;;32.81;47.52;99606.81;5033090;28;810;-62
2021/07/07 09:12:13;;;;;;;;;;;;;;;33.01;48.31;99605.97;5033092;28;1070;-62
2021/07/07 09:14:39;;;;;;;;;;;;;;;32.46;47.46;99620.50;5019418;28;1429;-62
2021/07/07 09:17:16;;;;;;;;;;;;;;;32.31;46.19;99607.59;5013293;28;803;-62
2021/07/07 09:19:43;;;;;;;;;;;;;;;32.51;50.93;99608.88;5013408;28;1981;-63
2021/07/07 09:22:13;;;;;;;;;;;;;;;33.33;51.15;99604.81;5013478;28;772;-63
2021/07/07 09:36:53;;;;;;;;;;;;;;;33.01;45.47;99610.91;5012543;28;1068;-62
2021/07/07 09:39:21;;;;;;;;;;;;;;;32.71;47.71;99592.25;5012766;28;1902;-63
2021/07/07 09:41:49;;;;;;;;;;;;;;;32.66;46.08;99613.97;5013001;28;909;-63
2021/07/07 09:44:18;;;;;;;;;;;;;;;32.82;47.45;99611.19;5012745;28;854;-62
2021/07/07 09:50:15;;;;;;;;;;;;;;;31.78;49.61;99610.72;5012663;28;673;-64
2021/07/07 09:52:42;;;;;;;;;;;;;;;31.64;51.45;99606.38;5012553;28;886;-65
2021/07/07 09:55:09;;;;;;;;;;;;;;;31.62;50.81;99609.81;5012893;28;814;-64
2021/07/07 09:57:45;;;;;;;;;;;;;;;31.78;53.27;99615.69;5011345;28;1431;-64
2021/07/07 10:00:22;;;;;;;;;;;;;;;31.56;50.61;99614.09;5012347;28;1894;-62
2021/07/07 10:02:49;;;;;;;;;;;;;;;31.71;57.19;99615.03;5012415;28;910;-64
2021/07/07 10:05:16;;;;;;;;;;;;;;;32.04;49.01;99618.41;5012549;28;811;-62
2021/07/07 10:07:43;;;;;;;;;;;;;;;31.63;56.30;99616.28;5012442;28;791;-65
2021/07/07 10:10:14;;;;;;;;;;;;;;;31.71;50.79;99625.72;5012613;28;866;-64
2021/07/07 10:12:44;;;;;;;;;;;;;;;31.34;48.65;99624.66;5012355;28;967;-62
2021/07/07 10:15:11;;;;;;;;;;;;;;;30.96;49.26;99630.69;5029588;28;1284;-63
2021/07/07 10:20:40;;;;;;;;;;;;;;;30.86;49.27;99632.41;5031860;28;1913;-63
2021/07/07 10:23:08;;;;;;;;;;;;;;;30.95;48.48;99629.13;5032028;28;799;-62
2021/07/07 10:25:38;;;;;;;;;;;;;;;30.88;49.64;99624.84;5032083;28;885;-63
2021/07/07 10:28:08;;;;;;;;;;;;;;;30.91;51.83;99635.16;5031933;28;831;-62
2021/07/07 10:30:55;;;;;;;;;;;;;;;30.96;51.79;99636.38;5013875;28;1437;-64
2021/07/07 10:33:27;;;;;;;;;;;;;;;31.27;55.25;99636.78;5031647;28;803;-64
2021/07/07 10:36:12;;;;;;;;;;;;;;;31.75;53.99;99640.41;5031557;28;888;-65
2021/07/07 10:38:38;;;;;;;;;;;;;;;32.23;47.34;99638.22;5031491;28;932;-63
2021/07/07 10:41:05;;;;;;;;;;;;;;;32.35;47.64;99635.84;5031786;28;1886;-63
2021/07/07 10:43:45;;;;;;;;;;;;;;;32.28;51.69;99633.69;5031618;28;969;-64
2021/07/07 10:46:12;;;;;;;;;;;;;;;31.58;49.74;99643.66;5031519;28;866;-64
2021/07/07 10:48:39;;;;;;;;;;;;;;;31.33;50.25;99631.72;5031117;28;874;-66
2021/07/07 10:51:25;;;;;;;;;;;;;;;31.89;50.35;99644.72;5031636;28;795;-62
2021/07/07 10:53:53;;;;;;;;;;;;;;;31.94;50.69;99629.56;5032264;28;814;-64
2021/07/07 10:56:40;;;;;;;;;;;;;;;31.60;54.39;99631.66;5031625;28;842;-65
2021/07/07 10:59:26;;;;;;;;;;;;;;;31.92;51.03;99637.91;5031352;28;1159;-66
2021/07/07 11:02:18;;;;;;;;;;;;;;;32.24;46.24;99638.97;5031374;28;1228;-63
2021/07/07 11:04:49;;;;;;;;;;;;;;;32.21;46.01;99634.38;5028530;28;1123;-64
2021/07/07 11:07:34;;;;;;;;;;;;;;;31.79;49.58;99632.25;5031216;28;866;-63
2021/07/07 11:10:12;;;;;;;;;;;;;;;30.81;49.75;99624.72;5031434;28;802;-63
2021/07/07 11:12:41;;;;;;;;;;;;;;;30.42;49.40;99612.72;5031299;28;872;-63
2021/07/07 11:15:11;;;;;;;;;;;;;;;30.71;48.80;99628.00;5031080;28;1366;-63
2021/07/07 11:17:37;;;;;;;;;;;;;;;31.26;48.15;99620.94;5031229;28;826;-63
2021/07/07 11:20:07;;;;;;;;;;;;;;;31.44;48.37;99620.06;5029920;28;1926;-65
2021/07/07 11:22:34;;;;;;;;;;;;;;;31.34;49.10;99628.31;5013923;28;1761;-62
2021/07/07 11:25:04;;;;;;;;;;;;;;;31.21;49.37;99630.41;5031214;28;814;-63
2021/07/07 11:27:32;;;;;;;;;;;;;;;30.86;49.25;99638.09;5031253;28;834;-64
2021/07/07 11:29:59;;;;;;;;;;;;;;;31.38;50.68;99624.34;5031182;28;826;-65
2021/07/07 11:32:27;;;;;;;;;;;;;;;32.38;49.40;99620.41;5031143;28;869;-65
2021/07/07 11:34:55;;;;;;;;;;;;;;;32.88;49.67;99632.63;5031141;28;799;-63
2021/07/07 11:37:25;;;;;;;;;;;;;;;32.32;46.63;99632.00;5031079;28;846;-65
2021/07/07 11:40:21;;;;;;;;;;;;;;;32.47;45.84;99630.59;5030935;28;1959;-63
2021/07/07 11:43:05;;;;;;;;;;;;;;;32.02;46.05;99629.66;5018123;28;1239;-64
2021/07/07 11:45:33;;;;;;;;;;;;;;;32.37;46.04;99624.63;5031067;28;897;-64
2021/07/07 11:48:12;;;;;;;;;;;;;;;32.46;46.37;99626.22;5030899;28;811;-63
2021/07/07 11:50:43;;;;;;;;;;;;;;;32.37;46.03;99638.91;5031044;28;845;-63
2021/07/07 11:53:09;;;;;;;;;;;;;;;32.08;45.68;99641.72;5030819;28;847;-63
2021/07/07 11:55:53;;;;;;;;;;;;;;;32.25;46.62;99638.44;5031174;28;882;-64
2021/07/07 11:58:26;;;;;;;;;;;;;;;32.62;46.04;99639.31;5031596;28;803;-64
2021/07/07 12:00:54;;;;;;;;;;;;;;;32.92;44.44;99635.88;5034329;28;1961;-64
2021/07/07 12:03:21;;;;;;;;;;;;;;;33.02;45.82;99636.13;5034340;28;791;-63
2021/07/07 12:05:56;;;;;;;;;;;;;;;32.95;45.06;99631.13;5034199;28;807;-64
2021/07/07 12:08:24;;;;;;;;;;;;;;;32.63;45.10;99642.94;5034251;28;866;-64
2021/07/07 12:10:51;;;;;;;;;;;;;;;32.81;44.85;99632.56;5034280;28;878;-63
2021/07/07 12:13:25;;;;;;;;;;;;;;;32.58;44.09;99616.00;5032099;28;1166;-64
2021/07/07 12:15:52;;;;;;;;;;;;;;;32.75;45.75;99624.91;5014304;28;803;-63
2021/07/07 12:18:27;;;;;;;;;;;;;;;33.09;45.32;99623.97;5014308;28;858;-65
2021/07/07 12:20:54;;;;;;;;;;;;;;;33.43;43.54;99619.31;5014028;28;1991;-62
2021/07/07 12:23:21;;;;;;;;;;;;;;;33.40;44.10;99621.22;5014325;28;874;-64
2021/07/07 12:25:58;;;;;;;;;;;;;;;33.35;42.83;99625.81;5014039;28;926;-64
2021/07/07 12:28:25;;;;;;;;;;;;;;;33.40;43.83;99617.59;5014501;28;894;-65
2021/07/07 12:30:51;;;;;;;;;;;;;;;33.86;43.38;99629.94;5014184;28;850;-63
2021/07/07 12:33:18;;;;;;;;;;;;;;;33.51;40.69;99638.06;5014121;28;807;-64
2021/07/07 12:35:47;;;;;;;;;;;;;;;33.28;42.16;99628.63;5014148;28;898;-64
2021/07/07 12:38:13;;;;;;;;;;;;;;;33.25;42.01;99626.91;5014184;28;888;-66
2021/07/07 12:40:40;;;;;;;;;;;;;;;33.14;42.32;99625.91;5013886;28;2021;-63
2021/07/07 12:43:13;;;;;;;;;;;;;;;33.39;42.23;99621.78;5013943;28;872;-63
2021/07/07 12:45:40;;;;;;;;;;;;;;;33.79;42.55;99621.38;5013871;28;806;-65
2021/07/07 12:48:10;;;;;;;;;;;;;;;33.99;42.49;99629.00;5013858;28;843;-65
2021/07/07 12:50:41;;;;;;;;;;;;;;;33.84;41.11;99635.53;5013728;28;933;-63
2021/07/07 12:53:07;;;;;;;;;;;;;;;33.73;42.67;99633.75;5013623;28;827;-66
2021/07/07 12:55:34;;;;;;;;;;;;;;;34.43;42.76;99633.84;5013640;28;895;-65
2021/07/07 12:58:05;;;;;;;;;;;;;;;34.68;40.58;99629.06;5012420;28;2374;-64
2021/07/07 13:00:31;;;;;;;;;;;;;;;34.34;41.96;99635.19;5013492;28;1894;-64
2021/07/07 13:02:59;;;;;;;;;;;;;;;34.34;41.05;99635.19;5013444;28;874;-65
2021/07/07 13:05:32;;;;;;;;;;;;;;;34.42;41.11;99633.09;5013559;28;807;-65
2021/07/07 13:08:00;;;;;;;;;;;;;;;34.24;40.72;99632.13;5013452;28;905;-65
2021/07/07 13:10:27;;;;;;;;;;;;;;;34.10;40.21;99633.63;5012561;28;836;-64
2021/07/07 13:12:55;;;;;;;;;;;;;;;33.71;40.57;99635.66;5013517;28;936;-64
2021/07/07 13:15:22;;;;;;;;;;;;;;;33.74;41.32;99625.94;5014276;28;1303;-64
2021/07/07 13:18:00;;;;;;;;;;;;;;;33.80;41.47;99634.34;5033071;28;810;-65
2021/07/07 13:20:27;;;;;;;;;;;;;;;33.85;41.45;99631.31;5032840;28;1917;-65
2021/07/07 13:23:01;;;;;;;;;;;;;;;33.95;40.84;99632.28;5032901;28;819;-65
2021/07/07 13:25:28;;;;;;;;;;;;;;;33.88;41.16;99627.28;5032767;28;851;-64
2021/07/07 13:27:55;;;;;;;;;;;;;;;33.95;41.35;99635.16;5032867;28;861;-65
2021/07/07 13:30:29;;;;;;;;;;;;;;;33.73;38.80;99630.13;5032895;28;913;-64
2021/07/07 13:32:55;;;;;;;;;;;;;;;33.49;40.97;99635.00;5032648;28;791;-64
2021/07/07 13:35:22;;;;;;;;;;;;;;;33.64;41.70;99630.69;5032538;28;881;-65
2021/07/07 13:37:49;;;;;;;;;;;;;;;33.74;40.31;99641.03;5032904;28;810;-64
2021/07/07 13:40:17;;;;;;;;;;;;;;;33.45;41.07;99646.06;5032572;28;1906;-64
2021/07/07 13:42:45;;;;;;;;;;;;;;;33.35;41.58;99645.84;5032429;28;872;-65